KHLC

Hill City Municipal Airport

Hill City, Kansas, USA
METAR KHLC 232153Z AUTO 08006KT 10SM CLR 02/M04 A3017 RMK AO2 SLP237 T00171044
Observed Flight Rules
Feb-23 @ 21:53 UTC (43 minutes ago) Visual Flight Rules
Wind Visibility Clouds
80° at 6 knots 10 miles
  • Clear skies
Temperatures Readings
Current 2°C / 36°F
Dewpoint -4°C / 25°F
Humidity 65%
Altimeter 30.17" Hg
Pressure 1023.7 hPa
Elevation 669
METAR KHLC 232153Z AUTO 08006KT 10SM CLR 02/M04 A3017 RMK AO2 SLP237 T00171044
Observed Flight Rules
Feb-23 @ 21:53 UTC
(43 minutes ago)
VFR
Wind Visibility
80° at 6 knots 10 miles
Clouds
  • Clear skies
Temperature Dewpoint
2°C / 36°F -4°C / 25°F
Humidity Altimeter Pressure
65% 30.17" Hg 1023.7 hPa